Nomad — 8PPY — position and weather

sailwx.info

Track history (hours):
 
Tides and Currents Weather Stations Pressure Air Temp Water Temp Dewpoint Dewpoint Depression Visibility Wind Speed Wind Dir Waves Ship Positions

Nomad

Last reported at 2018-Jun-23 08:38 UTC. Time now 2018-Aug-21 03:54 UTC.
Position S 32°40' E 152°50'.
Warning: this ship's position is 58 days out of date.

Length 190 m; draft 12.9 m.

Type: Cargo ship. MMSI: 314148000.

Date/timePositionNaut miles runAvg speedWind from/ knotsBaromVisibWave heightAir tempDewpointWater temp
2018-Jun-23 08:38S 32°40' E 152°50'214.9
2018-Jun-23 08:30S 32°41' E 152°48'1014.3
2018-Jun-23 07:47S 32°47' E 152°39'413.8
2018-Jun-23 07:30S 32°49' E 152°34'713.8
2018-Jun-23 07:00S 32°51' E 152°27'713.7
2018-Jun-23 06:30S 32°53' E 152°19'713.6
2018-Jun-23 06:00S 32°55' E 152°12'713.5
2018-Jun-23 05:30S 32°57' E 152°04'612.7
2018-Jun-23 05:00S 32°58' E 151°56'5 9.8
2018-Jun-23 04:30S 32°58' E 151°50'4 7.1
2018-Jun-23 04:00S 32°55' E 151°48'2 3.2
2018-Jun-23 03:30S 32°54' E 151°46'2 0.1
2018-Jun-22 10:00S 32°53' E 151°45'0 0.0
2018-Jun-22 09:18S 32°53' E 151°45'0 0.0
2018-Jun-21 14:24S 32°53' E 151°45'0 0.0
2018-Jun-21 09:39S 32°53' E 151°45'0 1.9
2018-Jun-21 09:30S 32°53' E 151°45'1 2.2
2018-Jun-21 09:00S 32°54' E 151°46'2 3.8
2018-Jun-21 08:28S 32°55' E 151°48'4 7.7
2018-Jun-21 08:00S 32°57' E 151°52'4 8.2
2018-Jun-21 07:30S 33°01' E 151°53'4 6.0
2018-Jun-21 06:51S 33°04' E 151°55'1 1.6
2018-Jun-21 06:25S 33°04' E 151°56'1 1.6
2018-Jun-21 05:57S 33°04' E 151°57'1 1.6
2018-Jun-21 05:29S 33°04' E 151°57'1 1.5
2018-Jun-21 05:00S 33°03' E 151°58'1 1.5
2018-Jun-21 04:30S 33°03' E 151°59'1 1.3
2018-Jun-21 04:00S 33°03' E 151°60'0 0.9
2018-Jun-21 03:30S 33°03' E 152°00'0 0.4
2018-Jun-21 03:00S 33°03' E 152°00'0 0.3
2018-Jun-21 02:30S 33°03' E 152°00'0 0.5
2018-Jun-21 02:00S 33°03' E 152°00'0 0.6
2018-Jun-21 01:30S 33°03' E 151°60'0 0.4
2018-Jun-21 01:00S 33°03' E 151°60'1 1.2
2018-Jun-21 00:30S 33°03' E 151°59'3 6.2
2018-Jun-21 00:00S 33°00' E 151°57'1 2.0
2018-Jun-20 23:30S 33°01' E 151°58'0 0.7
2018-Jun-20 23:00S 33°01' E 151°58'0 0.9
2018-Jun-20 22:30S 33°01' E 151°59'1 2.2
2018-Jun-20 22:00S 33°00' E 151°58'1 2.3
2018-Jun-20 21:30S 33°01' E 151°59'1 1.6
2018-Jun-20 21:00S 33°02' E 151°59'1 1.3
2018-Jun-20 20:30S 33°02' E 152°00'1 1.5
2018-Jun-20 20:00S 33°01' E 152°00'4 8.4
2018-Jun-20 19:30S 32°57' E 151°59'612.7
2018-Jun-20 19:00S 32°56' E 152°06'713.4
2018-Jun-20 18:30S 32°54' E 152°14'713.9
2018-Jun-20 18:00S 32°53' E 152°22'713.8
2018-Jun-20 17:30S 32°50' E 152°30'713.2
2018-Jun-20 17:00S 32°46' E 152°36'612.9
2018-Jun-20 16:30S 32°41' E 152°41'612.7
2018-Jun-20 16:00S 32°36' E 152°45'712.4
2018-Jun-20 15:28S 32°30' E 152°49'288 7.6
2018-Jun-19 01:31S 27°47' E 153°51'63 9.6
2018-Jun-18 18:55S 26°47' E 153°28'613.6
2018-Jun-18 18:27S 26°46' E 153°21'12 8.1
2018-Jun-18 17:01S 26°50' E 153°09'513.4
2018-Jun-18 16:40S 26°54' E 153°11'513.8
2018-Jun-18 16:19S 26°58' E 153°14'513.2
2018-Jun-18 15:56S 27°03' E 153°16'512.4
2018-Jun-18 15:30S 27°07' E 153°20'711.3
2018-Jun-18 14:54S 27°13' E 153°17'613.4
2018-Jun-18 14:28S 27°18' E 153°13'711.3
2018-Jun-18 13:52S 27°24' E 153°09'3 4.3
2018-Jun-18 13:13S 27°26' E 153°07'0 0.0
2018-Jun-17 07:54S 27°26' E 153°07'0 0.0
2018-Jun-17 07:30S 27°26' E 153°07'0 0.0
2018-Jun-17 05:00S 27°26' E 153°07'0 0.0
2018-Jun-17 04:30S 27°26' E 153°07'0 0.0
2018-Jun-17 03:57S 27°26' E 153°07'0 0.0
2018-Jun-17 03:30S 27°26' E 153°07'0 0.0
2018-Jun-17 02:39S 27°26' E 153°07'0 0.0
2018-Jun-17 02:27S 27°26' E 153°07'0 0.0
2018-Jun-17 02:00S 27°26' E 153°07'0 0.0
2018-Jun-17 01:30S 27°26' E 153°07'0 0.0
2018-Jun-17 00:54S 27°26' E 153°07'0 0.0
2018-Jun-17 00:24S 27°26' E 153°07'0 0.0
2018-Jun-17 00:00S 27°26' E 153°07'0 0.0
2018-Jun-16 23:30S 27°26' E 153°07'0 0.0
2018-Jun-16 23:00S 27°26' E 153°07'0 0.0
2018-Jun-16 22:30S 27°26' E 153°07'0 0.0
2018-Jun-16 21:12S 27°26' E 153°07'0 0.0
2018-Jun-16 19:42S 27°26' E 153°07'0 0.0
2018-Jun-16 19:24S 27°26' E 153°07'0 0.0
2018-Jun-16 18:57S 27°26' E 153°07'0 0.0
2018-Jun-16 18:30S 27°26' E 153°07'0 0.0
2018-Jun-16 18:00S 27°26' E 153°07'0 0.0
2018-Jun-16 17:30S 27°26' E 153°07'0 0.0
2018-Jun-16 17:00S 27°26' E 153°07'0 0.0
2018-Jun-16 16:30S 27°26' E 153°07'0 0.0
2018-Jun-16 16:00S 27°26' E 153°07'0 0.0
2018-Jun-16 15:30S 27°26' E 153°07'0 0.0
2018-Jun-16 15:00S 27°26' E 153°07'0 0.0
2018-Jun-16 14:30S 27°26' E 153°07'0 0.0
2018-Jun-16 14:00S 27°26' E 153°07'0 0.0
2018-Jun-16 13:30S 27°26' E 153°07'0 0.0
2018-Jun-16 13:00S 27°26' E 153°07'0 0.0
2018-Jun-16 12:27S 27°26' E 153°07'0 0.0
2018-Jun-16 12:00S 27°26' E 153°07'0 0.0
2018-Jun-16 11:30S 27°26' E 153°07'0 0.0
2018-Jun-16 10:57S 27°26' E 153°07'0 0.0
2018-Jun-16 10:30S 27°26' E 153°07'0 0.0
2018-Jun-16 10:00S 27°26' E 153°07'0 0.0
2018-Jun-16 04:42S 27°26' E 153°07'0 0.0
2018-Jun-16 04:30S 27°26' E 153°07'0 0.0
2018-Jun-16 03:30S 27°26' E 153°07'0 0.0
2018-Jun-16 03:00S 27°26' E 153°07'0 0.0
2018-Jun-16 02:30S 27°26' E 153°07'0 0.0
2018-Jun-16 01:18S 27°26' E 153°07'0 0.0
2018-Jun-16 01:00S 27°26' E 153°07'0 0.0
2018-Jun-15 21:30S 27°26' E 153°07'0 0.0
2018-Jun-15 20:57S 27°26' E 153°07'0 0.0
2018-Jun-15 19:47S 27°26' E 153°07'0 0.0
2018-Jun-15 19:24S 27°26' E 153°07'0 0.0
2018-Jun-15 19:00S 27°26' E 153°07'0 0.0
2018-Jun-15 17:42S 27°26' E 153°07'0 0.0
2018-Jun-15 17:27S 27°26' E 153°07'0 0.0
2018-Jun-15 16:57S 27°26' E 153°07'0 0.0
2018-Jun-15 16:30S 27°26' E 153°07'0 0.0
2018-Jun-15 15:06S 27°26' E 153°07'0 0.0
2018-Jun-15 14:54S 27°26' E 153°07'0 0.0
2018-Jun-15 14:15S 27°26' E 153°07'0 0.0
2018-Jun-15 13:39S 27°26' E 153°07'0 0.0
2018-Jun-15 13:23S 27°26' E 153°07'0 0.0
2018-Jun-15 13:00S 27°26' E 153°07'2 4.3
2018-Jun-15 12:30S 27°24' E 153°09'4 8.8
2018-Jun-15 12:00S 27°20' E 153°11'4 8.2
2018-Jun-15 11:31S 27°17' E 153°14'2 4.0
2018-Jun-15 11:00S 27°16' E 153°16'2 4.4
2018-Jun-15 10:30S 27°15' E 153°18'3 6.2
2018-Jun-15 10:01S 27°13' E 153°20'5 9.3
2018-Jun-15 09:30S 27°08' E 153°21'612.0
2018-Jun-15 09:00S 27°03' E 153°17'613.1
2018-Jun-15 08:31S 26°58' E 153°13'713.3
2018-Jun-15 08:01S 26°52' E 153°09'510.6
2018-Jun-15 07:31S 26°47' E 153°12'7 8.3
2018-Jun-15 06:43S 26°44' E 153°18'2412.1
2018-Jun-15 04:43S 27°00' E 153°38'312.4
2018-Jun-15 04:29S 27°03' E 153°39'1312.0
2018-Jun-15 03:24S 27°15' E 153°45'1711.2
2018-Jun-15 01:52S 27°32' E 153°51'511.7
2018-Jun-15 01:28S 27°36' E 153°51'511.5
2018-Jun-15 01:01S 27°41' E 153°52'611.1
2018-Jun-15 00:31S 27°47' E 153°52'611.2
2018-Jun-14 23:57S 27°53' E 153°53'28612.2
2018-Jun-14 00:31S 32°33' E 152°48'213.4
2018-Jun-14 00:23S 32°35' E 152°47'513.4
2018-Jun-14 00:00S 32°38' E 152°43'713.4
2018-Jun-13 23:30S 32°43' E 152°37'713.8
2018-Jun-13 23:00S 32°48' E 152°31'714.0
2018-Jun-13 22:30S 32°53' E 152°25'712.9
2018-Jun-13 22:00S 32°55' E 152°18'612.5
2018-Jun-13 21:30S 32°56' E 152°11'713.2
2018-Jun-13 21:00S 32°55' E 152°03'713.0
2018-Jun-13 20:28S 32°55' E 151°54'510.9
2018-Jun-13 20:00S 32°55' E 151°48'2 3.6
2018-Jun-13 19:31S 32°55' E 151°46'1 1.5
2018-Jun-13 18:57S 32°54' E 151°46'0 0.0
2018-Jun-13 18:27S 32°54' E 151°46'0 0.0
2018-Jun-13 17:57S 32°54' E 151°46'0 0.0
2018-Jun-13 17:27S 32°54' E 151°46'0 0.0
2018-Jun-13 17:00S 32°54' E 151°46'0 0.0
2018-Jun-13 16:27S 32°54' E 151°46'0 0.0
2018-Jun-13 15:58S 32°54' E 151°46'0 0.0
2018-Jun-13 15:30S 32°54' E 151°46'0 0.0
2018-Jun-13 14:57S 32°54' E 151°46'0 0.0
2018-Jun-13 14:27S 32°54' E 151°46'0 0.0
2018-Jun-13 14:00S 32°54' E 151°46'0 0.0
2018-Jun-13 13:28S 32°54' E 151°46'0 0.0
2018-Jun-13 12:57S 32°54' E 151°46'0 0.0
2018-Jun-13 12:27S 32°54' E 151°46'0 0.0
2018-Jun-13 12:00S 32°54' E 151°46'0 0.0
2018-Jun-13 11:30S 32°54' E 151°46'0 0.0
2018-Jun-13 10:57S 32°54' E 151°46'0 0.0
2018-Jun-13 10:30S 32°54' E 151°46'0 0.0
2018-Jun-13 09:57S 32°54' E 151°46'0 0.0
2018-Jun-13 09:30S 32°54' E 151°46'0 0.0
2018-Jun-13 08:57S 32°54' E 151°46'  
Track history (hours):
 
Tides and Currents Weather Stations Pressure Air Temp Water Temp Dewpoint Dewpoint Depression Visibility Wind Speed Wind Dir Waves Ship Positions

Nomad

Last reported at 2018-Jun-23 08:38 UTC. Time now 2018-Aug-21 03:54 UTC.
Position S 32°40' E 152°50'.
Warning: this ship's position is 58 days out of date.

Length 190 m; draft 12.9 m.

Type: Cargo ship. MMSI: 314148000.

Date/timePositionNaut miles runAvg speedWind from/ knotsBaromVisibWave heightAir tempDewpointWater temp
2018-Jun-23 08:38S 32°40' E 152°50'214.9
2018-Jun-23 08:30S 32°41' E 152°48'1014.3
2018-Jun-23 07:47S 32°47' E 152°39'413.8
2018-Jun-23 07:30S 32°49' E 152°34'713.8
2018-Jun-23 07:00S 32°51' E 152°27'713.7
2018-Jun-23 06:30S 32°53' E 152°19'713.6
2018-Jun-23 06:00S 32°55' E 152°12'713.5
2018-Jun-23 05:30S 32°57' E 152°04'612.7
2018-Jun-23 05:00S 32°58' E 151°56'5 9.8
2018-Jun-23 04:30S 32°58' E 151°50'4 7.1
2018-Jun-23 04:00S 32°55' E 151°48'2 3.2
2018-Jun-23 03:30S 32°54' E 151°46'2 0.1
2018-Jun-22 10:00S 32°53' E 151°45'0 0.0
2018-Jun-22 09:18S 32°53' E 151°45'0 0.0
2018-Jun-21 14:24S 32°53' E 151°45'0 0.0
2018-Jun-21 09:39S 32°53' E 151°45'0 1.9
2018-Jun-21 09:30S 32°53' E 151°45'1 2.2
2018-Jun-21 09:00S 32°54' E 151°46'2 3.8
2018-Jun-21 08:28S 32°55' E 151°48'4 7.7
2018-Jun-21 08:00S 32°57' E 151°52'4 8.2
2018-Jun-21 07:30S 33°01' E 151°53'4 6.0
2018-Jun-21 06:51S 33°04' E 151°55'1 1.6
2018-Jun-21 06:25S 33°04' E 151°56'1 1.6
2018-Jun-21 05:57S 33°04' E 151°57'1 1.6
2018-Jun-21 05:29S 33°04' E 151°57'1 1.5
2018-Jun-21 05:00S 33°03' E 151°58'1 1.5
2018-Jun-21 04:30S 33°03' E 151°59'1 1.3
2018-Jun-21 04:00S 33°03' E 151°60'0 0.9
2018-Jun-21 03:30S 33°03' E 152°00'0 0.4
2018-Jun-21 03:00S 33°03' E 152°00'0 0.3
2018-Jun-21 02:30S 33°03' E 152°00'0 0.5
2018-Jun-21 02:00S 33°03' E 152°00'0 0.6
2018-Jun-21 01:30S 33°03' E 151°60'0 0.4
2018-Jun-21 01:00S 33°03' E 151°60'1 1.2
2018-Jun-21 00:30S 33°03' E 151°59'3 6.2
2018-Jun-21 00:00S 33°00' E 151°57'1 2.0
2018-Jun-20 23:30S 33°01' E 151°58'0 0.7
2018-Jun-20 23:00S 33°01' E 151°58'0 0.9
2018-Jun-20 22:30S 33°01' E 151°59'1 2.2
2018-Jun-20 22:00S 33°00' E 151°58'1 2.3
2018-Jun-20 21:30S 33°01' E 151°59'1 1.6
2018-Jun-20 21:00S 33°02' E 151°59'1 1.3
2018-Jun-20 20:30S 33°02' E 152°00'1 1.5
2018-Jun-20 20:00S 33°01' E 152°00'4 8.4
2018-Jun-20 19:30S 32°57' E 151°59'612.7
2018-Jun-20 19:00S 32°56' E 152°06'713.4
2018-Jun-20 18:30S 32°54' E 152°14'713.9
2018-Jun-20 18:00S 32°53' E 152°22'713.8
2018-Jun-20 17:30S 32°50' E 152°30'713.2
2018-Jun-20 17:00S 32°46' E 152°36'612.9
2018-Jun-20 16:30S 32°41' E 152°41'612.7
2018-Jun-20 16:00S 32°36' E 152°45'712.4
2018-Jun-20 15:28S 32°30' E 152°49'288 7.6
2018-Jun-19 01:31S 27°47' E 153°51'63 9.6
2018-Jun-18 18:55S 26°47' E 153°28'613.6
2018-Jun-18 18:27S 26°46' E 153°21'12 8.1
2018-Jun-18 17:01S 26°50' E 153°09'513.4
2018-Jun-18 16:40S 26°54' E 153°11'513.8
2018-Jun-18 16:19S 26°58' E 153°14'513.2
2018-Jun-18 15:56S 27°03' E 153°16'512.4
2018-Jun-18 15:30S 27°07' E 153°20'711.3
2018-Jun-18 14:54S 27°13' E 153°17'613.4
2018-Jun-18 14:28S 27°18' E 153°13'711.3
2018-Jun-18 13:52S 27°24' E 153°09'3 4.3
2018-Jun-18 13:13S 27°26' E 153°07'0 0.0
2018-Jun-17 07:54S 27°26' E 153°07'0 0.0
2018-Jun-17 07:30S 27°26' E 153°07'0 0.0
2018-Jun-17 05:00S 27°26' E 153°07'0 0.0
2018-Jun-17 04:30S 27°26' E 153°07'0 0.0
2018-Jun-17 03:57S 27°26' E 153°07'0 0.0
2018-Jun-17 03:30S 27°26' E 153°07'0 0.0
2018-Jun-17 02:39S 27°26' E 153°07'0 0.0
2018-Jun-17 02:27S 27°26' E 153°07'0 0.0
2018-Jun-17 02:00S 27°26' E 153°07'0 0.0
2018-Jun-17 01:30S 27°26' E 153°07'0 0.0
2018-Jun-17 00:54S 27°26' E 153°07'0 0.0
2018-Jun-17 00:24S 27°26' E 153°07'0 0.0
2018-Jun-17 00:00S 27°26' E 153°07'0 0.0
2018-Jun-16 23:30S 27°26' E 153°07'0 0.0
2018-Jun-16 23:00S 27°26' E 153°07'0 0.0
2018-Jun-16 22:30S 27°26' E 153°07'0 0.0
2018-Jun-16 21:12S 27°26' E 153°07'0 0.0
2018-Jun-16 19:42S 27°26' E 153°07'0 0.0
2018-Jun-16 19:24S 27°26' E 153°07'0 0.0
2018-Jun-16 18:57S 27°26' E 153°07'0 0.0
2018-Jun-16 18:30S 27°26' E 153°07'0 0.0
2018-Jun-16 18:00S 27°26' E 153°07'0 0.0
2018-Jun-16 17:30S 27°26' E 153°07'0 0.0
2018-Jun-16 17:00S 27°26' E 153°07'0 0.0
2018-Jun-16 16:30S 27°26' E 153°07'0 0.0
2018-Jun-16 16:00S 27°26' E 153°07'0 0.0
2018-Jun-16 15:30S 27°26' E 153°07'0 0.0
2018-Jun-16 15:00S 27°26' E 153°07'0 0.0
2018-Jun-16 14:30S 27°26' E 153°07'0 0.0
2018-Jun-16 14:00S 27°26' E 153°07'0 0.0
2018-Jun-16 13:30S 27°26' E 153°07'0 0.0
2018-Jun-16 13:00S 27°26' E 153°07'0 0.0
2018-Jun-16 12:27S 27°26' E 153°07'0 0.0
2018-Jun-16 12:00S 27°26' E 153°07'0 0.0
2018-Jun-16 11:30S 27°26' E 153°07'0 0.0
2018-Jun-16 10:57S 27°26' E 153°07'0 0.0
2018-Jun-16 10:30S 27°26' E 153°07'0 0.0
2018-Jun-16 10:00S 27°26' E 153°07'0 0.0
2018-Jun-16 04:42S 27°26' E 153°07'0 0.0
2018-Jun-16 04:30S 27°26' E 153°07'0 0.0
2018-Jun-16 03:30S 27°26' E 153°07'0 0.0
2018-Jun-16 03:00S 27°26' E 153°07'0 0.0
2018-Jun-16 02:30S 27°26' E 153°07'0 0.0
2018-Jun-16 01:18S 27°26' E 153°07'0 0.0
2018-Jun-16 01:00S 27°26' E 153°07'0 0.0
2018-Jun-15 21:30S 27°26' E 153°07'0 0.0
2018-Jun-15 20:57S 27°26' E 153°07'0 0.0
2018-Jun-15 19:47S 27°26' E 153°07'0 0.0
2018-Jun-15 19:24S 27°26' E 153°07'0 0.0
2018-Jun-15 19:00S 27°26' E 153°07'0 0.0
2018-Jun-15 17:42S 27°26' E 153°07'0 0.0
2018-Jun-15 17:27S 27°26' E 153°07'0 0.0
2018-Jun-15 16:57S 27°26' E 153°07'0 0.0
2018-Jun-15 16:30S 27°26' E 153°07'0 0.0
2018-Jun-15 15:06S 27°26' E 153°07'0 0.0
2018-Jun-15 14:54S 27°26' E 153°07'0 0.0
2018-Jun-15 14:15S 27°26' E 153°07'0 0.0
2018-Jun-15 13:39S 27°26' E 153°07'0 0.0
2018-Jun-15 13:23S 27°26' E 153°07'0 0.0
2018-Jun-15 13:00S 27°26' E 153°07'2 4.3
2018-Jun-15 12:30S 27°24' E 153°09'4 8.8
2018-Jun-15 12:00S 27°20' E 153°11'4 8.2
2018-Jun-15 11:31S 27°17' E 153°14'2 4.0
2018-Jun-15 11:00S 27°16' E 153°16'2 4.4
2018-Jun-15 10:30S 27°15' E 153°18'3 6.2
2018-Jun-15 10:01S 27°13' E 153°20'5 9.3
2018-Jun-15 09:30S 27°08' E 153°21'612.0
2018-Jun-15 09:00S 27°03' E 153°17'613.1
2018-Jun-15 08:31S 26°58' E 153°13'713.3
2018-Jun-15 08:01S 26°52' E 153°09'510.6
2018-Jun-15 07:31S 26°47' E 153°12'7 8.3
2018-Jun-15 06:43S 26°44' E 153°18'2412.1
2018-Jun-15 04:43S 27°00' E 153°38'312.4
2018-Jun-15 04:29S 27°03' E 153°39'1312.0
2018-Jun-15 03:24S 27°15' E 153°45'1711.2
2018-Jun-15 01:52S 27°32' E 153°51'511.7
2018-Jun-15 01:28S 27°36' E 153°51'511.5
2018-Jun-15 01:01S 27°41' E 153°52'611.1
2018-Jun-15 00:31S 27°47' E 153°52'611.2
2018-Jun-14 23:57S 27°53' E 153°53'28612.2
2018-Jun-14 00:31S 32°33' E 152°48'213.4
2018-Jun-14 00:23S 32°35' E 152°47'513.4
2018-Jun-14 00:00S 32°38' E 152°43'713.4
2018-Jun-13 23:30S 32°43' E 152°37'713.8
2018-Jun-13 23:00S 32°48' E 152°31'714.0
2018-Jun-13 22:30S 32°53' E 152°25'712.9
2018-Jun-13 22:00S 32°55' E 152°18'612.5
2018-Jun-13 21:30S 32°56' E 152°11'713.2
2018-Jun-13 21:00S 32°55' E 152°03'713.0
2018-Jun-13 20:28S 32°55' E 151°54'510.9
2018-Jun-13 20:00S 32°55' E 151°48'2 3.6
2018-Jun-13 19:31S 32°55' E 151°46'1 1.5
2018-Jun-13 18:57S 32°54' E 151°46'0 0.0
2018-Jun-13 18:27S 32°54' E 151°46'0 0.0
2018-Jun-13 17:57S 32°54' E 151°46'0 0.0
2018-Jun-13 17:27S 32°54' E 151°46'0 0.0
2018-Jun-13 17:00S 32°54' E 151°46'0 0.0
2018-Jun-13 16:27S 32°54' E 151°46'0 0.0
2018-Jun-13 15:58S 32°54' E 151°46'0 0.0
2018-Jun-13 15:30S 32°54' E 151°46'0 0.0
2018-Jun-13 14:57S 32°54' E 151°46'0 0.0
2018-Jun-13 14:27S 32°54' E 151°46'0 0.0
2018-Jun-13 14:00S 32°54' E 151°46'0 0.0
2018-Jun-13 13:28S 32°54' E 151°46'0 0.0
2018-Jun-13 12:57S 32°54' E 151°46'0 0.0
2018-Jun-13 12:27S 32°54' E 151°46'0 0.0
2018-Jun-13 12:00S 32°54' E 151°46'0 0.0
2018-Jun-13 11:30S 32°54' E 151°46'0 0.0
2018-Jun-13 10:57S 32°54' E 151°46'0 0.0
2018-Jun-13 10:30S 32°54' E 151°46'0 0.0
2018-Jun-13 09:57S 32°54' E 151°46'0 0.0
2018-Jun-13 09:30S 32°54' E 151°46'0 0.0
2018-Jun-13 08:57S 32°54' E 151°46'  

Dump ship's entire track history